Time;durP1;ratioP1;P1;durP2;ratioP2;P2;SDS_P1;SDS_P2;PMS_P1;PMS_P2;Temp;Humidity;BMP_temperature;BMP_pressure;BME280_temperature;BME280_humidity;BME280_pressure;Samples;Min_cycle;Max_cycle;Signal;HPM_P1;HPM_P2
2023/10/18 00:01:31;;;;;;;13.63;6.93;;;5.50;99.90;;;;;;5087026;28;20066;-74
2023/10/18 00:03:56;;;;;;;13.07;6.88;;;5.50;99.90;;;;;;5081313;28;20037;-74
2023/10/18 00:06:23;;;;;;;13.40;6.75;;;5.50;99.90;;;;;;5058582;28;20032;-74
2023/10/18 00:08:57;;;;;;;17.75;7.47;;;5.50;99.90;;;;;;5058579;28;20143;-74
2023/10/18 00:11:26;;;;;;;15.82;7.82;;;5.50;99.90;;;;;;5058298;28;20066;-73
2023/10/18 00:13:53;;;;;;;13.98;7.05;;;5.50;99.90;;;;;;5056111;28;20036;-74
2023/10/18 00:16:22;;;;;;;14.23;7.65;;;5.50;99.90;;;;;;5058295;28;20041;-74
2023/10/18 00:18:48;;;;;;;14.55;7.95;;;5.50;99.90;;;;;;5072997;28;20174;-74
2023/10/18 00:21:14;;;;;;;13.82;8.20;;;5.50;99.90;;;;;;5058615;28;20127;-73
2023/10/18 00:23:39;;;;;;;16.00;8.18;;;5.50;99.90;;;;;;5074169;28;20033;-74
2023/10/18 00:26:09;;;;;;;13.82;7.97;;;5.50;99.90;;;;;;5058248;28;20036;-74
2023/10/18 00:28:38;;;;;;;15.48;9.00;;;5.50;99.90;;;;;;5073428;28;20046;-74
2023/10/18 00:31:18;;;;;;;15.65;9.02;;;5.50;99.90;;;;;;5090609;28;20047;-74
2023/10/18 00:33:47;;;;;;;15.50;9.32;;;5.50;99.90;;;;;;5068857;28;20040;-74
2023/10/18 00:36:16;;;;;;;16.50;8.80;;;5.40;99.90;;;;;;5074715;28;20051;-74
2023/10/18 00:38:48;;;;;;;16.65;8.40;;;5.40;99.90;;;;;;5066649;28;20037;-74
2023/10/18 00:41:32;;;;;;;16.30;8.63;;;5.40;99.90;;;;;;5058037;28;20082;-74
2023/10/18 00:43:58;;;;;;;13.90;9.25;;;5.30;99.90;;;;;;5057937;28;20040;-74
2023/10/18 00:46:24;;;;;;;18.08;9.88;;;5.30;99.90;;;;;;5074582;28;20082;-74
2023/10/18 00:48:51;;;;;;;14.88;9.02;;;5.20;99.90;;;;;;5054705;28;20063;-74
2023/10/18 00:51:18;;;;;;;16.67;9.95;;;5.20;99.90;;;;;;5057834;28;20047;-74
2023/10/18 00:53:45;;;;;;;16.40;9.98;;;5.20;99.90;;;;;;5090655;28;20090;-74
2023/10/18 00:56:12;;;;;;;16.92;9.88;;;5.20;99.90;;;;;;5074174;28;20052;-74
2023/10/18 00:58:41;;;;;;;18.92;10.52;;;5.20;99.90;;;;;;5055152;28;20052;-74
2023/10/18 01:01:10;;;;;;;16.83;9.52;;;5.20;99.90;;;;;;5073425;28;20374;-74
2023/10/18 01:03:42;;;;;;;16.95;8.95;;;5.20;99.90;;;;;;5073519;28;20047;-74
2023/10/18 01:06:16;;;;;;;18.25;9.90;;;5.30;99.90;;;;;;5074529;28;20123;-74
2023/10/18 01:08:45;;;;;;;17.13;10.85;;;5.20;99.90;;;;;;5056370;28;20086;-74
2023/10/18 01:11:11;;;;;;;18.45;10.40;;;5.20;99.90;;;;;;5089447;28;20094;-74
2023/10/18 01:13:42;;;;;;;18.25;10.80;;;5.20;99.90;;;;;;5056498;28;20484;-74
2023/10/18 01:16:14;;;;;;;19.35;11.55;;;5.20;99.90;;;;;;5090095;28;20037;-74
2023/10/18 01:18:44;;;;;;;19.65;11.23;;;5.20;99.90;;;;;;5090946;28;20041;-74
2023/10/18 01:21:16;;;;;;;18.73;11.73;;;5.30;99.90;;;;;;5072191;28;20032;-74
2023/10/18 01:24:00;;;;;;;19.70;10.55;;;5.30;99.90;;;;;;5074189;28;20047;-74
2023/10/18 01:26:37;;;;;;;20.77;11.63;;;5.30;99.90;;;;;;5057452;28;20384;-74
2023/10/18 01:29:08;;;;;;;19.23;12.32;;;5.30;99.90;;;;;;5056361;28;20549;-74
2023/10/18 01:31:33;;;;;;;22.35;11.88;;;5.30;99.90;;;;;;5049046;28;20044;-74
2023/10/18 01:33:59;;;;;;;23.60;12.55;;;5.40;99.90;;;;;;5090583;28;20127;-74
2023/10/18 01:36:31;;;;;;;24.63;12.60;;;5.30;99.90;;;;;;5057000;28;20042;-74
2023/10/18 01:38:58;;;;;;;22.98;12.98;;;5.40;99.90;;;;;;5071588;28;20041;-74
2023/10/18 01:41:27;;;;;;;21.38;12.25;;;5.40;99.90;;;;;;5072480;28;20040;-74
2023/10/18 01:43:55;;;;;;;19.83;11.85;;;5.40;99.90;;;;;;5056094;28;20508;-74
2023/10/18 01:46:23;;;;;;;21.13;12.45;;;5.30;99.90;;;;;;5073386;28;20044;-74
2023/10/18 01:48:50;;;;;;;19.77;12.88;;;5.30;99.90;;;;;;5055900;28;20045;-74
2023/10/18 01:51:17;;;;;;;19.80;10.63;;;5.30;99.90;;;;;;5072547;28;20432;-74
2023/10/18 01:53:43;;;;;;;19.67;11.65;;;5.30;99.90;;;;;;5055867;28;20123;-74
2023/10/18 01:56:09;;;;;;;20.73;11.93;;;5.30;99.90;;;;;;5073041;28;20052;-74
2023/10/18 01:58:38;;;;;;;17.63;11.43;;;5.20;99.90;;;;;;5056602;28;20078;-74
2023/10/18 02:01:10;;;;;;;20.58;11.85;;;5.20;99.90;;;;;;5054482;28;20056;-74
2023/10/18 02:03:44;;;;;;;20.50;12.13;;;5.20;99.90;;;;;;5073198;28;20033;-74
2023/10/18 02:06:09;;;;;;;20.27;11.57;;;5.20;99.90;;;;;;5056495;28;20033;-74
2023/10/18 02:08:35;;;;;;;19.98;11.48;;;5.10;99.90;;;;;;5072883;28;20040;-74
2023/10/18 02:11:06;;;;;;;18.55;11.10;;;5.20;99.90;;;;;;5055272;28;20068;-74
2023/10/18 02:13:32;;;;;;;17.77;11.52;;;5.20;99.90;;;;;;5072913;28;20123;-74
2023/10/18 02:15:57;;;;;;;16.73;10.90;;;5.10;99.90;;;;;;5054328;28;20535;-74
2023/10/18 02:18:23;;;;;;;20.02;11.52;;;5.10;99.90;;;;;;5072770;28;20075;-74
2023/10/18 02:20:52;;;;;;;17.95;10.70;;;5.10;99.90;;;;;;5055601;28;20042;-74
2023/10/18 02:23:19;;;;;;;19.75;11.60;;;5.00;99.90;;;;;;5071752;28;20046;-74
2023/10/18 02:25:45;;;;;;;21.02;11.95;;;5.00;99.90;;;;;;5072864;28;20534;-74
2023/10/18 02:28:22;;;;;;;21.52;11.77;;;5.00;99.90;;;;;;5055892;28;20036;-74
2023/10/18 02:30:55;;;;;;;19.92;11.32;;;5.00;99.90;;;;;;5054840;28;20036;-74
2023/10/18 02:33:23;;;;;;;21.80;12.77;;;5.00;99.90;;;;;;5061857;28;20059;-74
2023/10/18 02:35:49;;;;;;;20.58;11.80;;;5.00;99.90;;;;;;5056051;28;20051;-74
2023/10/18 02:38:14;;;;;;;19.35;11.43;;;5.10;99.90;;;;;;5072494;28;20048;-74
2023/10/18 02:40:40;;;;;;;20.90;12.10;;;5.00;99.90;;;;;;5071326;28;20504;-74
2023/10/18 02:43:11;;;;;;;18.85;11.25;;;5.00;99.90;;;;;;5054201;28;20028;-74
2023/10/18 02:45:39;;;;;;;17.33;12.15;;;5.00;99.90;;;;;;5055955;28;20044;-74
2023/10/18 02:48:08;;;;;;;18.40;11.90;;;5.00;99.90;;;;;;5055572;28;20074;-74
2023/10/18 02:50:34;;;;;;;17.77;11.10;;;5.00;99.90;;;;;;5071080;28;20055;-74
2023/10/18 02:53:00;;;;;;;19.48;11.30;;;5.00;99.90;;;;;;5070983;28;20032;-74
2023/10/18 02:55:26;;;;;;;19.23;12.38;;;5.00;99.90;;;;;;5055339;28;20063;-74
2023/10/18 02:57:52;;;;;;;20.73;12.07;;;5.00;99.90;;;;;;5055456;28;20040;-74
2023/10/18 03:00:20;;;;;;;20.08;11.73;;;5.00;99.90;;;;;;5054693;28;20131;-74
2023/10/18 03:02:45;;;;;;;17.85;11.32;;;4.90;99.90;;;;;;5055412;28;20500;-74
2023/10/18 03:05:11;;;;;;;18.10;11.60;;;5.00;99.90;;;;;;5070310;28;20042;-74
2023/10/18 03:07:37;;;;;;;18.90;11.82;;;5.00;99.90;;;;;;5072228;28;20432;-74
2023/10/18 03:10:19;;;;;;;20.08;13.05;;;5.00;99.90;;;;;;5054479;28;20048;-74
2023/10/18 03:12:44;;;;;;;19.25;11.55;;;5.00;99.90;;;;;;5072045;28;20051;-74
2023/10/18 03:15:17;;;;;;;19.13;11.90;;;5.00;99.90;;;;;;5069530;28;20123;-74
2023/10/18 03:17:43;;;;;;;17.73;11.48;;;5.00;99.90;;;;;;5070320;28;20124;-74
2023/10/18 03:20:19;;;;;;;18.27;12.38;;;5.00;99.90;;;;;;5071799;28;20550;-74
2023/10/18 03:22:45;;;;;;;18.67;11.48;;;5.00;99.90;;;;;;5071162;28;20044;-74
2023/10/18 03:25:16;;;;;;;17.95;11.02;;;4.90;99.90;;;;;;5053738;28;20058;-74
2023/10/18 03:27:49;;;;;;;18.98;12.38;;;5.00;99.90;;;;;;5072150;28;20392;-74
2023/10/18 03:30:20;;;;;;;17.35;10.82;;;5.00;99.90;;;;;;5054305;28;20127;-74
2023/10/18 03:32:53;;;;;;;18.77;11.32;;;5.00;99.90;;;;;;5069503;28;21821;-74
2023/10/18 03:35:22;;;;;;;17.92;11.55;;;5.00;99.90;;;;;;5052852;28;20043;-74
2023/10/18 03:37:48;;;;;;;18.10;11.10;;;5.00;99.90;;;;;;5054941;28;20512;-73
2023/10/18 03:40:23;;;;;;;16.75;11.00;;;5.00;99.90;;;;;;5071550;28;20032;-74
2023/10/18 03:42:51;;;;;;;20.85;11.88;;;5.00;99.90;;;;;;5054933;28;20047;-74
2023/10/18 03:45:22;;;;;;;16.58;9.88;;;5.00;99.90;;;;;;5069553;28;20116;-74
2023/10/18 03:48:08;;;;;;;18.20;11.75;;;5.10;99.90;;;;;;5055066;28;20043;-74
2023/10/18 03:50:40;;;;;;;19.77;11.60;;;5.10;99.90;;;;;;5071872;28;20086;-74
2023/10/18 03:53:13;;;;;;;18.23;12.57;;;5.10;99.90;;;;;;5069585;28;20048;-74
2023/10/18 03:55:44;;;;;;;20.73;12.20;;;5.00;99.90;;;;;;5053919;28;20127;-74
2023/10/18 03:58:09;;;;;;;21.70;12.07;;;5.00;99.90;;;;;;5054733;28;20097;-74
2023/10/18 04:00:38;;;;;;;18.92;11.55;;;5.00;99.90;;;;;;5070645;28;20037;-73
2023/10/18 04:03:12;;;;;;;17.65;11.75;;;5.10;99.90;;;;;;5070762;28;20457;-73
2023/10/18 04:05:42;;;;;;;17.65;11.25;;;5.00;99.90;;;;;;5055141;28;20474;-73
2023/10/18 04:08:17;;;;;;;19.25;11.65;;;5.10;99.90;;;;;;5051484;28;20102;-73
2023/10/18 04:10:44;;;;;;;18.48;12.15;;;5.10;99.90;;;;;;5051626;28;20109;-74
2023/10/18 04:13:14;;;;;;;19.90;12.95;;;5.00;99.90;;;;;;5051060;28;20094;-74
2023/10/18 04:15:46;;;;;;;21.48;13.73;;;5.00;99.90;;;;;;5069584;28;20040;-74
2023/10/18 04:18:13;;;;;;;20.33;12.50;;;5.00;99.90;;;;;;5054612;28;20037;-74
2023/10/18 04:20:44;;;;;;;18.38;12.50;;;5.00;99.90;;;;;;5070439;28;20254;-74
2023/10/18 04:23:14;;;;;;;20.52;13.00;;;4.90;99.90;;;;;;5053675;28;20040;-74
2023/10/18 04:25:43;;;;;;;23.73;13.05;;;4.90;99.90;;;;;;5070714;28;20033;-74
2023/10/18 04:28:12;;;;;;;21.05;12.57;;;4.90;99.90;;;;;;5071288;28;20235;-74
2023/10/18 04:30:38;;;;;;;19.45;13.23;;;4.90;99.90;;;;;;5054300;28;20041;-74
2023/10/18 04:33:24;;;;;;;20.42;12.95;;;4.90;99.90;;;;;;5070641;28;20047;-74
2023/10/18 04:35:52;;;;;;;21.23;13.50;;;4.90;99.90;;;;;;5073762;28;20404;-74
2023/10/18 04:38:30;;;;;;;18.08;11.50;;;4.90;99.90;;;;;;5057984;28;20524;-73
2023/10/18 04:41:06;;;;;;;20.77;13.48;;;4.90;99.90;;;;;;5057924;28;20033;-74
2023/10/18 04:43:34;;;;;;;22.02;13.00;;;4.90;99.90;;;;;;5056809;28;20078;-73
2023/10/18 04:46:07;;;;;;;22.73;14.13;;;4.90;99.90;;;;;;5073148;28;20041;-74
2023/10/18 04:54:03;;;;;;;21.13;13.82;;;5.00;99.90;;;;;;5072639;28;20310;-74
2023/10/18 04:56:34;;;;;;;21.35;13.77;;;4.90;99.90;;;;;;5064606;28;20068;-73
2023/10/18 04:59:06;;;;;;;19.63;13.48;;;4.90;99.90;;;;;;5047354;28;20047;-74
2023/10/18 05:07:04;;;;;;;22.13;13.90;;;4.90;99.90;;;;;;5074082;28;20036;-74
2023/10/18 05:09:32;;;;;;;21.27;13.23;;;4.90;99.90;;;;;;5066543;28;20040;-74
2023/10/18 05:14:50;;;;;;;22.15;12.82;;;4.90;99.90;;;;;;5061989;28;20087;-74
2023/10/18 05:17:23;;;;;;;23.92;14.43;;;4.90;99.90;;;;;;5070664;28;20040;-74
2023/10/18 05:19:49;;;;;;;21.45;13.85;;;5.00;99.90;;;;;;5056445;28;20123;-74
2023/10/18 05:22:17;;;;;;;23.88;14.98;;;4.90;99.90;;;;;;5052783;28;20048;-74
2023/10/18 05:24:54;;;;;;;21.10;14.05;;;4.90;99.90;;;;;;5073136;28;20036;-74
2023/10/18 05:27:24;;;;;;;23.63;14.23;;;4.90;99.90;;;;;;5065280;28;20505;-74
2023/10/18 05:29:59;;;;;;;20.55;14.07;;;4.90;99.90;;;;;;5084752;28;20527;-74
2023/10/18 05:35:03;;;;;;;23.52;14.85;;;4.90;99.90;;;;;;5069943;28;20139;-73
2023/10/18 05:37:33;;;;;;;24.85;16.67;;;4.90;99.90;;;;;;5051055;28;20477;-74
2023/10/18 05:42:46;;;;;;;22.65;14.55;;;4.90;99.90;;;;;;5066477;28;20123;-73
2023/10/18 05:45:13;;;;;;;21.00;14.18;;;4.90;99.90;;;;;;5071151;28;20067;-73
2023/10/18 05:47:39;;;;;;;20.90;14.48;;;4.90;99.90;;;;;;5070691;28;20493;-74
2023/10/18 05:50:05;;;;;;;21.02;13.95;;;4.90;99.90;;;;;;5054402;28;20064;-74
2023/10/18 05:52:37;;;;;;;23.77;15.57;;;4.90;99.90;;;;;;5054167;28;20075;-74
2023/10/18 05:55:08;;;;;;;21.45;13.88;;;4.90;99.90;;;;;;5072075;28;20044;-73
2023/10/18 05:57:34;;;;;;;22.30;15.07;;;4.90;99.90;;;;;;5048893;28;20048;-78
2023/10/18 06:00:00;;;;;;;18.65;11.73;;;5.00;99.90;;;;;;5077167;28;20076;-78
2023/10/18 06:02:27;;;;;;;25.02;15.70;;;5.20;99.90;;;;;;5068513;28;20044;-73
2023/10/18 06:04:55;;;;;;;21.02;13.80;;;5.20;99.90;;;;;;5069366;28;20493;-73
2023/10/18 06:07:23;;;;;;;23.13;15.18;;;5.20;99.90;;;;;;5055981;28;20067;-74
2023/10/18 06:12:30;;;;;;;;;;;5.10;99.90;;;;;;5068038;28;20134;-74
2023/10/18 06:15:10;;;;;;;23.88;14.68;;;5.10;99.90;;;;;;5055425;28;19916;-74
2023/10/18 06:20:23;;;;;;;20.58;13.70;;;5.10;99.90;;;;;;5070676;28;20127;-73
2023/10/18 06:22:50;;;;;;;26.30;15.73;;;5.10;99.90;;;;;;5053047;28;20098;-75
2023/10/18 06:25:25;;;;;;;22.55;14.60;;;5.00;99.90;;;;;;5074285;28;20041;-74
2023/10/18 06:27:53;;;;;;;23.05;14.27;;;5.00;99.90;;;;;;5044892;28;20044;-73
2023/10/18 06:30:18;;;;;;;19.98;13.70;;;5.10;99.90;;;;;;5067635;28;20075;-74
2023/10/18 06:32:45;;;;;;;21.30;14.48;;;5.00;99.90;;;;;;5071837;28;20507;-74
2023/10/18 06:35:26;;;;;;;21.95;14.02;;;5.10;99.90;;;;;;5055388;28;20548;-74
2023/10/18 06:37:52;;;;;;;22.55;14.38;;;5.10;99.90;;;;;;5072721;28;20059;-73
2023/10/18 06:40:22;;;;;;;26.23;15.32;;;5.00;99.90;;;;;;5058708;28;20040;-74
2023/10/18 06:42:48;;;;;;;22.52;15.60;;;5.10;99.90;;;;;;5068562;28;20036;-74
2023/10/18 06:45:18;;;;;;;24.23;15.93;;;5.10;99.90;;;;;;5043364;28;20036;-74
2023/10/18 06:47:45;;;;;;;21.45;14.32;;;5.10;99.90;;;;;;5062523;28;20041;-74
2023/10/18 06:50:19;;;;;;;23.50;14.32;;;5.10;99.90;;;;;;5071597;28;20078;-83
2023/10/18 06:52:52;;;;;;;22.60;13.75;;;5.20;99.90;;;;;;5070832;28;20067;-77
2023/10/18 06:55:19;;;;;;;21.83;14.20;;;5.30;99.90;;;;;;5069842;28;20062;-77
2023/10/18 06:57:49;;;;;;;24.33;14.43;;;5.30;99.90;;;;;;5088166;28;20040;-76
2023/10/18 07:00:15;;;;;;;22.83;14.35;;;5.30;99.90;;;;;;5053918;28;20032;-76
2023/10/18 07:02:41;;;;;;;21.50;14.63;;;5.30;99.90;;;;;;5052984;28;20037;-77
2023/10/18 07:05:09;;;;;;;24.00;15.23;;;5.20;99.90;;;;;;5070597;28;20051;-76
2023/10/18 07:07:37;;;;;;;24.30;14.80;;;5.20;99.90;;;;;;5053770;28;20511;-77
2023/10/18 07:10:05;;;;;;;24.67;16.48;;;5.20;99.90;;;;;;5064119;28;20087;-77
2023/10/18 07:12:44;;;;;;;24.50;15.88;;;5.20;99.90;;;;;;5051382;28;20124;-78
2023/10/18 07:15:15;;;;;;;22.95;15.40;;;5.20;99.90;;;;;;5078044;28;20040;-78
2023/10/18 07:17:41;;;;;;;22.73;14.82;;;5.30;99.90;;;;;;5065057;28;20048;-77
2023/10/18 07:20:15;;;;;;;25.20;15.27;;;5.30;99.90;;;;;;5073510;28;20451;-77
2023/10/18 07:22:45;;;;;;;25.02;16.25;;;5.40;99.90;;;;;;5054277;28;20439;-77
2023/10/18 07:25:21;;;;;;;22.00;14.23;;;5.40;99.90;;;;;;5088618;28;20032;-77
2023/10/18 07:27:47;;;;;;;22.92;14.18;;;5.50;99.90;;;;;;5053732;28;20033;-77
2023/10/18 07:30:16;;;;;;;22.90;14.40;;;5.60;99.90;;;;;;5052768;28;20037;-77
2023/10/18 07:32:42;;;;;;;24.88;15.85;;;5.60;99.90;;;;;;5061943;28;20047;-77
2023/10/18 07:35:11;;;;;;;27.88;15.38;;;5.60;99.90;;;;;;5053397;28;20063;-76
2023/10/18 07:37:41;;;;;;;22.83;12.90;;;5.60;99.90;;;;;;5070749;28;20119;-76
2023/10/18 07:40:09;;;;;;;24.10;14.50;;;5.70;99.90;;;;;;5070866;28;20095;-76
2023/10/18 07:42:35;;;;;;;21.17;13.27;;;5.80;99.90;;;;;;5059765;28;20477;-76
2023/10/18 07:45:04;;;;;;;21.42;14.60;;;5.90;99.90;;;;;;5052257;28;20090;-77
2023/10/18 07:47:32;;;;;;;18.65;11.40;;;5.90;99.90;;;;;;5070593;28;20508;-76
2023/10/18 07:50:00;;;;;;;22.00;13.80;;;6.00;99.90;;;;;;5052160;28;20128;-77
2023/10/18 07:52:26;;;;;;;22.08;13.35;;;6.00;99.90;;;;;;5040779;28;20397;-77
2023/10/18 07:54:51;;;;;;;22.02;14.45;;;6.10;99.90;;;;;;5051213;28;20067;-77
2023/10/18 07:57:18;;;;;;;23.45;14.80;;;6.10;99.90;;;;;;5051520;28;20510;-76
2023/10/18 07:59:46;;;;;;;20.80;13.63;;;6.10;99.90;;;;;;5063213;28;20040;-76
2023/10/18 08:02:13;;;;;;;22.63;15.18;;;6.10;99.90;;;;;;5056060;28;20154;-77
2023/10/18 08:04:43;;;;;;;25.00;13.80;;;6.10;99.90;;;;;;5065360;28;20081;-77
2023/10/18 08:07:11;;;;;;;21.17;14.02;;;6.20;99.90;;;;;;5051256;28;20041;-77
2023/10/18 08:09:39;;;;;;;21.80;14.30;;;6.20;99.90;;;;;;5049676;28;20062;-77
2023/10/18 08:12:06;;;;;;;22.25;13.82;;;6.30;99.90;;;;;;5074422;28;20094;-76
2023/10/18 08:14:35;;;;;;;22.00;14.98;;;6.30;99.90;;;;;;5073132;28;20043;-77
2023/10/18 08:17:29;;;;;;;21.38;12.77;;;6.30;99.90;;;;;;5074213;28;20040;-76
2023/10/18 08:20:29;;;;;;;20.42;13.27;;;6.40;99.90;;;;;;5071352;28;20154;-77
2023/10/18 08:22:44;;;;;;;18.58;12.13;;;6.50;99.90;;;;;;5080153;28;20036;-76
2023/10/18 08:25:21;;;;;;;20.38;13.68;;;6.50;99.90;;;;;;5071380;28;20044;-76
2023/10/18 08:27:48;;;;;;;23.48;13.15;;;6.50;99.90;;;;;;5058363;28;20086;-76
2023/10/18 08:30:23;;;;;;;20.40;13.75;;;6.60;99.90;;;;;;5056626;28;20044;-76
2023/10/18 08:32:50;;;;;;;21.40;14.68;;;6.60;99.90;;;;;;5073457;28;20574;-76
2023/10/18 08:35:19;;;;;;;21.08;12.82;;;6.70;99.90;;;;;;5054909;28;20049;-77
2023/10/18 08:37:45;;;;;;;21.33;13.18;;;6.80;99.90;;;;;;5058065;28;20515;-77
2023/10/18 08:41:11;;;;;;;20.38;13.70;;;6.80;99.90;;;;;;5056572;28;20041;-77
2023/10/18 08:43:12;;;;;;;22.40;13.38;;;6.80;99.90;;;;;;5042686;28;20048;-76
2023/10/18 08:45:45;;;;;;;20.00;12.55;;;6.90;99.90;;;;;;5068037;28;20037;-76
2023/10/18 08:48:16;;;;;;;21.65;13.20;;;7.00;99.90;;;;;;5073373;28;20496;-77
2023/10/18 08:50:42;;;;;;;20.10;12.50;;;7.00;99.90;;;;;;5057026;28;20036;-76
2023/10/18 08:53:10;;;;;;;21.77;15.15;;;7.10;99.90;;;;;;5073972;28;20048;-76
2023/10/18 08:55:45;;;;;;;20.13;12.48;;;7.20;99.90;;;;;;5053819;28;20049;-77
2023/10/18 08:58:20;;;;;;;19.95;13.80;;;7.30;99.90;;;;;;5057278;28;20040;-76
2023/10/18 09:03:13;;;;;;;19.45;13.82;;;7.30;99.90;;;;;;5072511;28;20032;-76
2023/10/18 09:05:40;;;;;;;20.35;13.88;;;7.30;99.90;;;;;;5071126;28;20036;-77
2023/10/18 09:08:08;;;;;;;21.50;12.52;;;7.40;99.90;;;;;;5053391;28;20119;-77
2023/10/18 09:18:17;;;;;;;18.40;12.07;;;7.50;99.90;;;;;;5073446;28;20443;-76
2023/10/18 09:20:43;;;;;;;19.02;12.73;;;7.50;99.90;;;;;;5067397;28;20037;-77
2023/10/18 09:23:19;;;;;;;21.50;12.20;;;7.60;99.90;;;;;;5056078;28;20032;-77
2023/10/18 09:26:10;;;;;;;21.73;13.75;;;7.60;99.90;;;;;;5072140;28;20123;-77
2023/10/18 09:28:35;;;;;;;17.25;11.52;;;7.70;99.90;;;;;;5072322;28;20110;-77
2023/10/18 09:31:19;;;;;;;21.33;12.27;;;7.80;99.90;;;;;;5055915;28;20366;-77
2023/10/18 09:33:48;;;;;;;18.67;11.13;;;7.80;99.90;;;;;;5069604;28;20028;-77
2023/10/18 09:36:24;;;;;;;17.95;11.43;;;7.80;99.90;;;;;;5055450;28;20045;-77
2023/10/18 09:38:56;;;;;;;18.40;11.30;;;7.90;99.90;;;;;;5055289;28;20044;-76
2023/10/18 09:41:22;;;;;;;21.58;11.63;;;8.00;99.90;;;;;;5054160;28;20521;-77
2023/10/18 09:43:48;;;;;;;17.75;11.57;;;8.10;99.90;;;;;;5072489;28;20241;-77
2023/10/18 09:46:15;;;;;;;18.17;11.52;;;8.10;99.90;;;;;;5072530;28;20099;-77
2023/10/18 09:48:43;;;;;;;18.52;11.60;;;8.20;99.90;;;;;;5054345;28;20040;-77
2023/10/18 09:51:14;;;;;;;16.40;10.35;;;8.20;99.90;;;;;;5055986;28;20512;-76
2023/10/18 09:53:51;;;;;;;16.77;9.80;;;8.40;99.90;;;;;;5055375;28;20439;-76
2023/10/18 09:56:28;;;;;;;16.08;9.77;;;8.40;99.90;;;;;;5085456;28;20084;-77
2023/10/18 09:59:05;;;;;;;17.20;9.15;;;8.50;99.90;;;;;;5068086;28;20059;-77
2023/10/18 10:01:55;;;;;;;15.35;10.40;;;8.60;99.90;;;;;;5055717;28;20037;-77
2023/10/18 10:04:21;;;;;;;17.08;10.90;;;8.60;99.90;;;;;;5060869;28;20041;-77
2023/10/18 10:06:52;;;;;;;18.70;9.43;;;8.50;99.90;;;;;;5082431;28;20033;-77
2023/10/18 10:09:19;;;;;;;16.00;11.77;;;8.60;99.90;;;;;;5051406;28;20041;-79
2023/10/18 10:11:47;;;;;;;16.02;10.50;;;8.60;99.90;;;;;;5068374;28;20094;-82
2023/10/18 10:14:16;;;;;;;18.13;11.68;;;8.70;99.90;;;;;;5040464;28;20044;-78
2023/10/18 10:16:52;;;;;;;21.05;10.80;;;8.70;99.90;;;;;;5047699;28;20561;-78
2023/10/18 10:19:22;;;;;;;14.68;9.07;;;8.70;99.90;;;;;;5065640;28;20037;-79
2023/10/18 10:21:48;;;;;;;17.73;11.10;;;8.80;99.90;;;;;;5068611;28;20037;-78
2023/10/18 10:24:33;;;;;;;17.90;10.95;;;8.90;99.90;;;;;;5052710;28;20041;-78
2023/10/18 10:27:27;;;;;;;16.83;11.65;;;8.80;99.90;;;;;;5062681;28;20051;-79
2023/10/18 10:29:59;;;;;;;21.80;11.93;;;8.90;99.90;;;;;;5070140;28;20095;-79
2023/10/18 10:32:28;;;;;;;;;;;8.90;99.90;;;;;;5067323;28;20032;-79
2023/10/18 10:35:15;;;;;;;15.15;10.07;;;8.90;99.90;;;;;;5069556;28;19967;-78
2023/10/18 10:37:51;;;;;;;15.82;10.48;;;9.00;99.90;;;;;;5071571;28;20449;-78
2023/10/18 10:43:03;;;;;;;16.00;10.75;;;9.10;99.90;;;;;;5052506;28;20127;-78
2023/10/18 10:45:53;;;;;;;13.93;9.20;;;9.10;99.90;;;;;;5072163;28;20045;-78
2023/10/18 10:48:30;;;;;;;14.23;9.75;;;9.20;99.90;;;;;;5054015;28;20150;-78
2023/10/18 10:51:12;;;;;;;16.33;9.80;;;9.30;99.90;;;;;;5055829;28;20487;-78
2023/10/18 10:53:44;;;;;;;14.85;10.15;;;9.30;99.90;;;;;;5068607;28;20039;-78
2023/10/18 10:56:18;;;;;;;14.97;9.07;;;9.30;99.90;;;;;;5040120;28;20057;-77
2023/10/18 10:58:54;;;;;;;15.35;10.35;;;9.30;99.90;;;;;;5045519;28;20041;-77
2023/10/18 11:01:38;;;;;;;17.95;10.68;;;9.40;99.90;;;;;;5064769;28;20404;-78
2023/10/18 11:04:25;;;;;;;16.80;9.90;;;9.40;99.90;;;;;;5055433;28;20488;-78
2023/10/18 11:06:57;;;;;;;16.63;10.57;;;9.50;99.90;;;;;;5054925;28;20087;-78
2023/10/18 11:09:34;;;;;;;12.40;7.38;;;9.50;99.90;;;;;;5053806;28;20048;-78
2023/10/18 11:12:10;;;;;;;16.63;10.63;;;9.60;99.90;;;;;;5054531;28;20119;-79
2023/10/18 11:14:37;;;;;;;15.65;10.23;;;9.70;99.90;;;;;;5062801;28;20123;-78
2023/10/18 11:19:43;;;;;;;13.32;9.68;;;9.80;99.90;;;;;;5069803;28;20067;-78
2023/10/18 11:22:22;;;;;;;14.82;8.80;;;9.80;99.90;;;;;;5055203;28;20036;-78
2023/10/18 11:24:55;;;;;;;13.93;8.88;;;9.90;99.90;;;;;;5065503;28;20090;-78
2023/10/18 11:27:25;;;;;;;14.02;8.63;;;9.90;99.90;;;;;;5055432;28;20055;-78
2023/10/18 11:29:56;;;;;;;13.80;8.32;;;9.90;99.90;;;;;;5054148;28;20036;-78
2023/10/18 11:32:28;;;;;;;12.45;8.45;;;10.00;99.90;;;;;;5071889;28;20047;-78
2023/10/18 11:35:09;;;;;;;14.85;8.35;;;10.10;99.90;;;;;;5054127;28;20036;-78
2023/10/18 11:37:37;;;;;;;12.48;7.63;;;10.10;99.90;;;;;;5055058;28;20040;-78
2023/10/18 11:40:15;;;;;;;13.27;8.50;;;10.10;99.90;;;;;;5070400;28;20053;-78
2023/10/18 11:43:07;;;;;;;13.13;9.02;;;10.20;99.90;;;;;;5069069;28;20045;-78
2023/10/18 11:45:34;;;;;;;14.55;8.40;;;10.20;99.90;;;;;;5074796;28;20035;-77
2023/10/18 11:48:02;;;;;;;15.05;8.23;;;10.20;99.90;;;;;;5059278;28;20435;-77
2023/10/18 11:50:47;;;;;;;14.52;8.90;;;10.30;99.90;;;;;;5058507;28;20123;-78
2023/10/18 11:53:14;;;;;;;12.95;9.00;;;10.30;99.90;;;;;;5074799;28;20044;-78
2023/10/18 11:55:56;;;;;;;12.90;7.15;;;10.40;99.90;;;;;;5075382;28;20052;-77
2023/10/18 11:58:27;;;;;;;13.20;7.95;;;10.40;99.90;;;;;;5075467;28;20045;-78
2023/10/18 12:01:05;;;;;;;11.40;7.70;;;10.50;99.90;;;;;;5055673;28;20072;-78
2023/10/18 12:03:35;;;;;;;12.77;8.30;;;10.60;99.90;;;;;;5056772;28;20033;-77
2023/10/18 12:06:02;;;;;;;12.05;7.47;;;10.50;99.90;;;;;;5063054;28;20451;-77
2023/10/18 12:08:33;;;;;;;13.40;8.23;;;10.60;99.90;;;;;;5058975;28;20036;-79
2023/10/18 12:11:04;;;;;;;12.60;7.60;;;10.60;99.90;;;;;;5057625;28;20489;-78
2023/10/18 12:13:30;;;;;;;14.82;8.23;;;10.60;99.90;;;;;;5057925;28;20039;-80
2023/10/18 12:16:00;;;;;;;13.88;8.40;;;10.60;99.90;;;;;;5058535;28;20036;-78
2023/10/18 12:18:27;;;;;;;14.30;8.23;;;10.60;99.90;;;;;;5058480;28;20043;-79
2023/10/18 12:20:54;;;;;;;11.82;8.07;;;10.70;99.90;;;;;;5072331;28;20485;-80
2023/10/18 12:23:20;;;;;;;11.85;7.72;;;10.60;99.90;;;;;;5057544;28;20037;-80
2023/10/18 12:25:46;;;;;;;10.43;7.10;;;10.70;99.90;;;;;;5074960;28;20047;-80
2023/10/18 12:28:12;;;;;;;12.77;7.10;;;10.80;99.90;;;;;;5074135;28;20119;-79
2023/10/18 12:30:51;;;;;;;12.02;7.47;;;10.70;99.90;;;;;;5073902;28;20086;-80
2023/10/18 12:33:27;;;;;;;12.32;7.40;;;10.70;99.90;;;;;;5074968;28;20036;-80
2023/10/18 12:35:56;;;;;;;10.48;6.72;;;10.80;99.90;;;;;;5038181;28;20044;-80
2023/10/18 12:38:31;;;;;;;11.40;7.10;;;10.80;99.90;;;;;;5063193;28;20557;-79
2023/10/18 12:40:59;;;;;;;12.70;6.97;;;10.80;99.90;;;;;;5038280;28;20040;-80
2023/10/18 12:43:25;;;;;;;13.45;7.50;;;10.80;99.90;;;;;;5059688;28;20124;-80
2023/10/18 12:45:51;;;;;;;12.82;7.13;;;10.80;99.90;;;;;;5066802;28;20036;-79
2023/10/18 12:48:22;;;;;;;10.65;6.97;;;10.80;99.90;;;;;;5054176;28;20116;-80
2023/10/18 12:50:54;;;;;;;11.68;6.88;;;10.80;99.90;;;;;;5068474;28;20115;-80
2023/10/18 12:55:57;;;;;;;11.43;7.50;;;10.80;99.90;;;;;;5073236;28;20417;-79
2023/10/18 12:58:31;;;;;;;15.07;7.70;;;10.90;99.90;;;;;;5057786;28;20086;-79
2023/10/18 13:01:06;;;;;;;10.55;6.75;;;10.80;99.90;;;;;;5073291;28;20032;-78
2023/10/18 13:03:34;;;;;;;13.43;7.25;;;10.80;99.90;;;;;;5042477;28;20396;-79
2023/10/18 13:06:00;;;;;;;15.10;7.63;;;10.90;99.90;;;;;;5041302;28;20074;-79
2023/10/18 13:08:26;;;;;;;13.20;7.88;;;10.90;99.90;;;;;;5073930;28;20040;-79
2023/10/18 13:13:34;;;;;;;12.50;7.00;;;10.80;99.90;;;;;;5065648;28;20124;-79
2023/10/18 13:16:00;;;;;;;13.00;6.28;;;10.80;99.90;;;;;;5056744;28;20076;-80
2023/10/18 13:18:26;;;;;;;12.05;7.07;;;10.90;99.90;;;;;;5041135;28;20037;-80
2023/10/18 13:20:54;;;;;;;11.75;6.65;;;10.90;99.90;;;;;;5051260;28;20032;-79
2023/10/18 13:23:27;;;;;;;11.27;5.32;;;10.90;99.90;;;;;;5064368;28;20037;-79
2023/10/18 13:25:53;;;;;;;11.95;6.82;;;11.00;99.90;;;;;;5040510;28;20040;-79
2023/10/18 13:28:26;;;;;;;12.95;7.07;;;10.90;99.90;;;;;;5070021;28;20441;-79
2023/10/18 13:30:53;;;;;;;12.25;7.00;;;11.00;99.90;;;;;;5071945;28;20036;-79
2023/10/18 13:33:19;;;;;;;11.32;6.60;;;11.00;99.90;;;;;;5054374;28;20077;-79
2023/10/18 13:35:45;;;;;;;12.80;5.57;;;11.00;99.90;;;;;;5071487;28;20396;-77
2023/10/18 13:38:15;;;;;;;12.95;6.97;;;11.00;99.90;;;;;;5083116;28;20047;-78
2023/10/18 13:40:43;;;;;;;14.48;6.97;;;11.10;99.90;;;;;;5066057;28;20037;-78